Time;durP1;ratioP1;P1;durP2;ratioP2;P2;SDS_P1;SDS_P2;PMS_P1;PMS_P2;Temp;Humidity;BMP_temperature;BMP_pressure;BME280_temperature;BME280_humidity;BME280_pressure;Samples;Min_cycle;Max_cycle;Signal;HPM_P1;HPM_P2
2023/04/18 00:05:54;;;;;;;5.43;3.22;;;7.30;99.90;;;;;;12494679;28;20052;-81
2023/04/18 00:11:55;;;;;;;6.10;3.95;;;7.30;99.90;;;;;;12526040;28;20513;-81
2023/04/18 00:17:59;;;;;;;5.43;3.97;;;7.20;99.90;;;;;;12495491;28;20544;-82
2023/04/18 00:24:01;;;;;;;7.40;4.00;;;7.30;99.90;;;;;;12486833;28;20499;-81
2023/04/18 00:30:04;;;;;;;7.07;4.00;;;7.30;99.90;;;;;;12498344;28;20750;-81
2023/04/18 00:36:06;;;;;;;4.82;3.67;;;7.30;99.90;;;;;;12502746;28;20049;-81
2023/04/18 00:42:08;;;;;;;7.47;3.85;;;7.30;99.90;;;;;;12512440;28;20091;-81
2023/04/18 00:48:10;;;;;;;5.72;3.80;;;7.30;99.90;;;;;;12513085;28;20515;-81
2023/04/18 00:54:12;;;;;;;6.82;4.10;;;7.30;99.90;;;;;;12487925;28;20048;-81
2023/04/18 01:00:15;;;;;;;6.82;4.65;;;7.30;99.90;;;;;;12501143;28;20425;-80
2023/04/18 01:06:17;;;;;;;6.72;4.85;;;7.30;99.90;;;;;;12494684;28;20072;-81
2023/04/18 01:12:18;;;;;;;7.55;5.10;;;7.30;99.90;;;;;;12503530;28;20049;-81
2023/04/18 01:18:21;;;;;;;9.05;5.03;;;7.20;99.90;;;;;;12502805;28;20041;-81
2023/04/18 01:24:25;;;;;;;8.85;4.95;;;7.20;99.90;;;;;;12498283;28;20076;-81
2023/04/18 01:30:27;;;;;;;9.10;5.70;;;7.20;99.90;;;;;;12509540;28;20078;-80
2023/04/18 01:36:31;;;;;;;9.27;4.97;;;7.10;99.90;;;;;;12508998;28;20489;-80
2023/04/18 01:42:33;;;;;;;6.95;5.13;;;7.10;99.90;;;;;;12530347;28;20049;-81
2023/04/18 01:48:35;;;;;;;8.38;5.18;;;7.00;99.90;;;;;;12533540;28;20052;-81
2023/04/18 01:54:37;;;;;;;8.80;5.28;;;7.00;99.90;;;;;;12511872;28;20053;-81
2023/04/18 02:00:39;;;;;;;7.85;5.10;;;7.00;99.90;;;;;;12524581;28;20060;-80
2023/04/18 02:06:41;;;;;;;7.50;5.22;;;6.90;99.90;;;;;;12512651;28;20139;-81
2023/04/18 02:12:43;;;;;;;7.32;5.05;;;6.80;99.90;;;;;;12528699;28;20075;-80
2023/04/18 02:18:45;;;;;;;8.27;5.35;;;6.80;99.90;;;;;;12513296;28;20057;-80
2023/04/18 02:24:47;;;;;;;8.70;5.50;;;6.70;99.90;;;;;;12535552;28;20092;-81
2023/04/18 02:30:49;;;;;;;10.20;5.90;;;6.70;99.90;;;;;;12513023;28;20463;-81
2023/04/18 02:36:51;;;;;;;10.35;5.22;;;6.70;99.90;;;;;;12512114;28;20053;-81
2023/04/18 02:42:52;;;;;;;7.25;5.20;;;6.60;99.90;;;;;;12505181;28;20098;-80
2023/04/18 02:48:54;;;;;;;10.20;6.15;;;6.60;99.90;;;;;;12517493;28;20053;-80
2023/04/18 02:54:56;;;;;;;10.57;7.10;;;6.50;99.90;;;;;;12515901;28;20636;-80
2023/04/18 03:00:58;;;;;;;12.10;6.90;;;6.50;99.90;;;;;;12506016;28;20147;-81
2023/04/18 03:07:00;;;;;;;9.27;5.72;;;6.50;99.90;;;;;;12540152;28;20047;-80
2023/04/18 03:13:02;;;;;;;9.20;6.55;;;6.50;99.90;;;;;;12529160;28;20052;-80
2023/04/18 03:19:04;;;;;;;10.60;6.72;;;6.50;99.90;;;;;;12517581;28;20437;-80
2023/04/18 03:25:06;;;;;;;9.45;6.68;;;6.40;99.90;;;;;;12513535;28;20045;-80
2023/04/18 03:31:08;;;;;;;10.38;6.30;;;6.50;99.90;;;;;;12508423;28;20045;-81
2023/04/18 03:37:10;;;;;;;11.27;7.68;;;6.40;99.90;;;;;;12507087;28;20433;-81
2023/04/18 03:43:12;;;;;;;12.02;7.82;;;6.40;99.90;;;;;;12516828;28;20183;-81
2023/04/18 03:49:14;;;;;;;13.85;8.30;;;6.40;99.90;;;;;;12522901;28;20044;-81
2023/04/18 03:55:15;;;;;;;11.43;7.53;;;6.30;99.90;;;;;;12508526;28;20080;-80
2023/04/18 04:01:17;;;;;;;15.95;8.00;;;6.20;99.90;;;;;;12514889;28;20045;-81
2023/04/18 04:07:19;;;;;;;15.70;9.50;;;6.30;99.90;;;;;;12502021;28;20056;-81
2023/04/18 04:13:21;;;;;;;18.13;10.00;;;6.20;99.90;;;;;;12504316;28;20098;-80
2023/04/18 04:19:23;;;;;;;16.10;10.40;;;6.10;99.90;;;;;;12527951;28;20060;-80
2023/04/18 04:25:28;;;;;;;20.70;11.98;;;6.10;99.90;;;;;;12501993;28;20049;-81
2023/04/18 04:31:30;;;;;;;20.77;12.10;;;6.00;99.90;;;;;;12516051;28;20064;-81
2023/04/18 04:37:33;;;;;;;16.00;10.85;;;6.00;99.90;;;;;;12506049;28;20061;-81
2023/04/18 04:43:35;;;;;;;16.23;10.13;;;6.00;99.90;;;;;;12490991;28;20057;-82
2023/04/18 04:49:37;;;;;;;16.23;9.73;;;6.00;99.90;;;;;;12490909;28;20091;-81
2023/04/18 04:55:38;;;;;;;14.02;10.15;;;6.00;99.90;;;;;;12498416;28;20063;-81
2023/04/18 05:01:43;;;;;;;17.83;11.02;;;5.90;99.90;;;;;;12484824;28;20052;-82
2023/04/18 05:07:44;;;;;;;16.48;10.82;;;6.00;99.90;;;;;;12507412;28;20107;-82
2023/04/18 05:13:47;;;;;;;18.70;11.18;;;6.00;99.90;;;;;;12460401;28;20045;-82
2023/04/18 05:19:48;;;;;;;18.02;11.52;;;6.00;99.90;;;;;;12488424;28;20552;-81
2023/04/18 05:25:51;;;;;;;19.05;12.55;;;6.00;99.90;;;;;;12479093;28;20126;-81
2023/04/18 05:31:53;;;;;;;17.23;11.57;;;6.00;99.90;;;;;;12488902;28;20049;-81
2023/04/18 05:37:54;;;;;;;17.17;11.30;;;6.00;99.90;;;;;;12509894;28;20476;-81
2023/04/18 05:43:56;;;;;;;18.02;11.63;;;6.00;99.90;;;;;;12496400;28;20179;-81
2023/04/18 05:50:07;;;;;;;21.55;12.95;;;6.00;99.90;;;;;;12492622;28;20459;-82
2023/04/18 05:56:08;;;;;;;19.27;12.20;;;6.20;99.90;;;;;;12505251;28;20456;-81
2023/04/18 06:02:12;;;;;;;17.73;11.40;;;6.20;99.90;;;;;;12487755;28;20041;-82
2023/04/18 06:08:14;;;;;;;18.47;12.23;;;6.30;99.90;;;;;;12508595;28;20057;-82
2023/04/18 06:14:16;;;;;;;22.73;13.88;;;6.40;99.90;;;;;;12506375;28;20147;-82
2023/04/18 06:20:18;;;;;;;25.42;14.20;;;6.40;99.90;;;;;;12515253;28;20057;-82
2023/04/18 06:26:19;;;;;;;23.75;13.73;;;6.30;99.90;;;;;;12492573;28;20447;-82
2023/04/18 06:32:21;;;;;;;22.88;14.52;;;6.30;99.90;;;;;;12520964;28;20053;-81
2023/04/18 06:38:23;;;;;;;21.17;13.65;;;6.30;99.90;;;;;;12506928;28;21245;-82
2023/04/18 06:44:25;;;;;;;23.75;14.48;;;6.30;99.90;;;;;;12525405;28;20205;-82
2023/04/18 06:50:28;;;;;;;23.33;14.55;;;6.30;99.90;;;;;;12524450;28;20569;-81
2023/04/18 06:56:30;;;;;;;24.00;14.52;;;6.50;99.90;;;;;;12517026;28;20044;-82
2023/04/18 07:02:36;;;;;;;24.30;14.13;;;6.70;99.90;;;;;;12517510;28;20064;-82
2023/04/18 07:08:38;;;;;;;22.63;15.13;;;6.80;99.90;;;;;;12506200;28;20468;-82
2023/04/18 07:14:40;;;;;;;19.50;12.70;;;6.80;99.90;;;;;;12520941;28;20049;-83
2023/04/18 07:20:42;;;;;;;20.63;13.88;;;6.90;99.90;;;;;;12532452;28;20056;-82
2023/04/18 07:26:44;;;;;;;25.20;13.80;;;6.90;99.90;;;;;;12505618;28;20045;-82
2023/04/18 07:32:46;;;;;;;21.85;13.73;;;7.10;99.90;;;;;;12509032;28;20041;-83
2023/04/18 07:38:48;;;;;;;22.67;13.00;;;7.20;99.90;;;;;;12485268;28;20054;-83
2023/04/18 07:44:56;;;;;;;20.55;13.52;;;7.00;99.90;;;;;;12505633;28;20168;-82
2023/04/18 07:50:58;;;;;;;19.30;12.65;;;7.10;99.90;;;;;;12524904;28;20092;-82
2023/04/18 07:57:00;;;;;;;20.67;12.90;;;7.00;99.90;;;;;;12508920;28;20184;-82
2023/04/18 08:03:02;;;;;;;23.27;14.13;;;7.00;99.90;;;;;;12517590;28;20045;-83
2023/04/18 08:09:04;;;;;;;19.90;13.20;;;7.10;99.90;;;;;;12528089;28;20484;-83
2023/04/18 08:15:07;;;;;;;18.10;12.90;;;7.10;99.90;;;;;;12501166;28;20049;-82
2023/04/18 08:21:11;;;;;;;19.27;12.60;;;7.10;99.90;;;;;;12504367;28;20500;-82
2023/04/18 08:27:13;;;;;;;20.05;12.65;;;7.10;99.90;;;;;;12525568;28;20045;-83
2023/04/18 08:33:17;;;;;;;23.77;13.63;;;7.20;99.90;;;;;;12511813;28;20053;-82
2023/04/18 08:39:19;;;;;;;20.13;12.63;;;7.30;99.90;;;;;;12502683;28;20049;-82
2023/04/18 08:45:20;;;;;;;17.25;12.80;;;7.40;99.90;;;;;;12494460;28;20414;-82
2023/04/18 08:51:22;;;;;;;16.17;12.55;;;7.50;99.90;;;;;;12502041;28;20064;-82
2023/04/18 08:57:28;;;;;;;17.08;12.45;;;7.60;99.90;;;;;;12494064;28;20144;-82
2023/04/18 09:03:39;;;;;;;15.55;11.88;;;7.90;99.90;;;;;;12483852;28;20133;-82
2023/04/18 09:09:51;;;;;;;17.70;12.00;;;8.20;99.90;;;;;;12508610;28;20053;-82
2023/04/18 09:15:55;;;;;;;14.93;11.05;;;8.60;99.90;;;;;;12497320;28;20048;-82
2023/04/18 09:22:03;;;;;;;15.27;11.00;;;9.20;99.90;;;;;;12496599;28;20088;-82
2023/04/18 09:28:25;;;;;;;15.50;10.93;;;9.50;99.90;;;;;;12506074;28;20295;-82
2023/04/18 09:34:28;;;;;;;11.93;9.77;;;9.50;99.90;;;;;;12487414;28;20045;-82
2023/04/18 09:40:31;;;;;;;13.55;9.23;;;10.10;99.90;;;;;;12517217;28;20037;-82
2023/04/18 09:46:32;;;;;;;14.82;10.48;;;10.70;99.90;;;;;;12483640;28;20420;-82
2023/04/18 09:52:39;;;;;;;13.20;9.93;;;11.00;99.90;;;;;;12530151;28;20052;-83
2023/04/18 09:58:44;;;;;;;13.77;9.32;;;10.60;99.90;;;;;;12498614;28;20053;-83
2023/04/18 10:04:48;;;;;;;14.02;9.88;;;10.30;99.90;;;;;;12522192;28;20044;-83
2023/04/18 10:10:50;;;;;;;15.93;10.20;;;10.10;99.90;;;;;;12514419;28;20041;-83
2023/04/18 10:16:52;;;;;;;14.27;9.95;;;10.00;99.90;;;;;;12498734;28;20560;-83
2023/04/18 10:22:56;;;;;;;12.25;9.38;;;10.20;99.90;;;;;;12530466;28;20049;-83
2023/04/18 10:28:59;;;;;;;13.05;9.55;;;10.20;99.90;;;;;;12524934;28;20045;-82
2023/04/18 10:35:01;;;;;;;13.85;8.85;;;10.30;99.90;;;;;;12499779;28;20045;-83
2023/04/18 10:41:20;;;;;;;13.45;8.93;;;10.50;99.90;;;;;;12511527;28;20067;-83
2023/04/18 10:47:22;;;;;;;12.82;8.13;;;10.40;99.90;;;;;;12503562;28;20543;-82
2023/04/18 10:53:24;;;;;;;12.23;8.73;;;10.10;99.90;;;;;;12517860;28;20079;-83
2023/04/18 10:59:29;;;;;;;11.45;8.55;;;10.10;99.90;;;;;;12523830;28;20106;-83
2023/04/18 11:05:30;;;;;;;;;;;10.50;99.90;;;;;;12511809;28;20061;-83
2023/04/18 11:11:32;;;;;;;11.18;8.65;;;10.40;99.90;;;;;;12532184;28;20063;-83
2023/04/18 11:17:38;;;;;;;13.05;8.40;;;10.70;99.90;;;;;;12513825;28;20087;-83
2023/04/18 11:23:40;;;;;;;12.27;8.05;;;10.50;99.90;;;;;;12511290;28;20049;-83
2023/04/18 11:29:42;;;;;;;12.57;8.73;;;10.40;99.90;;;;;;12513527;28;20045;-83
2023/04/18 11:35:45;;;;;;;11.05;8.35;;;11.30;99.90;;;;;;12522472;28;20045;-83
2023/04/18 11:41:50;;;;;;;9.60;6.72;;;11.90;99.90;;;;;;12469844;28;20045;-83
2023/04/18 11:47:56;;;;;;;11.30;6.80;;;11.10;99.90;;;;;;12521724;28;20045;-84
2023/04/18 11:53:59;;;;;;;10.45;7.65;;;10.80;99.90;;;;;;12515113;28;20554;-84
2023/04/18 12:00:01;;;;;;;12.07;7.97;;;10.60;99.90;;;;;;12521042;28;20041;-83
2023/04/18 12:06:02;;;;;;;11.02;7.25;;;10.70;99.90;;;;;;12492327;28;20041;-83
2023/04/18 12:12:05;;;;;;;11.10;7.43;;;10.80;99.90;;;;;;12498676;28;20091;-84
2023/04/18 12:18:07;;;;;;;9.48;7.03;;;10.60;99.90;;;;;;12511074;28;20052;-83
2023/04/18 12:24:15;;;;;;;9.07;6.28;;;10.60;99.90;;;;;;12500827;28;20151;-83
2023/04/18 12:30:21;;;;;;;8.60;6.30;;;10.90;99.90;;;;;;12510399;28;20053;-83
2023/04/18 12:36:27;;;;;;;9.88;6.18;;;11.00;99.90;;;;;;12501928;28;20056;-83
2023/04/18 12:42:29;;;;;;;7.75;5.63;;;10.90;99.90;;;;;;12499571;28;20049;-83
2023/04/18 12:48:30;;;;;;;8.18;5.43;;;11.10;99.90;;;;;;12497694;28;20060;-84
2023/04/18 12:54:33;;;;;;;9.63;5.65;;;11.80;99.90;;;;;;12498161;28;20045;-83
2023/04/18 13:00:38;;;;;;;9.15;5.40;;;11.80;99.90;;;;;;12521865;28;20398;-83
2023/04/18 13:06:40;;;;;;;9.20;5.30;;;11.80;99.90;;;;;;12506822;28;20045;-83
2023/04/18 13:12:42;;;;;;;9.60;6.00;;;12.10;99.90;;;;;;12507180;28;20048;-83
2023/04/18 13:18:44;;;;;;;8.68;5.80;;;12.40;99.90;;;;;;12507859;28;20478;-82
2023/04/18 13:24:46;;;;;;;8.35;5.57;;;12.10;99.90;;;;;;12527240;28;20048;-83
2023/04/18 13:30:48;;;;;;;13.00;5.82;;;11.60;99.90;;;;;;12532248;28;20132;-83
2023/04/18 13:36:50;;;;;;;7.57;5.30;;;11.40;99.90;;;;;;12543503;28;20057;-82
2023/04/18 13:42:52;;;;;;;6.15;4.60;;;11.10;99.90;;;;;;12511160;28;20053;-83
2023/04/18 13:48:54;;;;;;;7.25;5.10;;;11.30;99.90;;;;;;12522843;28;20083;-83
2023/04/18 13:54:56;;;;;;;7.38;5.20;;;12.40;99.90;;;;;;12509875;28;20565;-82
2023/04/18 14:00:58;;;;;;;8.93;5.18;;;12.50;99.90;;;;;;12524804;28;20667;-83
2023/04/18 14:07:02;;;;;;;6.78;4.63;;;13.10;99.90;;;;;;12509411;28;20044;-83
2023/04/18 14:13:03;;;;;;;6.88;4.80;;;12.70;99.90;;;;;;12527533;28;20053;-83
2023/04/18 14:19:05;;;;;;;6.95;5.00;;;13.10;99.90;;;;;;12503793;28;20559;-82
2023/04/18 14:25:08;;;;;;;7.47;5.03;;;13.50;99.90;;;;;;12507321;28;20521;-83
2023/04/18 14:31:09;;;;;;;6.60;4.78;;;13.60;99.90;;;;;;12505636;28;20049;-83
2023/04/18 14:37:11;;;;;;;6.55;4.78;;;13.20;99.90;;;;;;12507399;28;20416;-83
2023/04/18 14:43:13;;;;;;;7.50;4.72;;;13.10;99.90;;;;;;12503120;28;20099;-83
2023/04/18 14:49:15;;;;;;;8.07;4.70;;;13.10;99.90;;;;;;12493678;28;20049;-83
2023/04/18 14:55:20;;;;;;;6.13;4.90;;;13.20;99.90;;;;;;12469390;28;20049;-83
2023/04/18 15:01:21;;;;;;;9.65;5.20;;;13.30;99.90;;;;;;12493181;28;20049;-83
2023/04/18 15:07:23;;;;;;;6.85;5.10;;;13.00;99.90;;;;;;12496703;28;20053;-83
2023/04/18 15:13:25;;;;;;;6.75;5.30;;;13.20;99.90;;;;;;12463832;28;20060;-83
2023/04/18 15:19:29;;;;;;;8.23;5.57;;;13.00;99.90;;;;;;12517683;28;20408;-82
2023/04/18 15:25:31;;;;;;;9.75;5.80;;;12.90;99.90;;;;;;12490724;28;20053;-83
2023/04/18 15:31:34;;;;;;;9.68;5.57;;;12.80;99.90;;;;;;12476665;28;20048;-82
2023/04/18 15:37:38;;;;;;;7.28;5.82;;;12.90;99.90;;;;;;12468313;28;20064;-83
2023/04/18 15:43:40;;;;;;;9.23;5.55;;;13.00;99.90;;;;;;12523257;28;20166;-83
2023/04/18 15:49:42;;;;;;;7.25;5.60;;;13.00;99.90;;;;;;12502084;28;20053;-83
2023/04/18 15:55:47;;;;;;;7.80;5.80;;;13.10;99.90;;;;;;12510337;28;20049;-83
2023/04/18 16:01:48;;;;;;;11.18;6.10;;;13.00;99.90;;;;;;12506977;28;20041;-83
2023/04/18 16:07:52;;;;;;;9.38;5.57;;;13.20;99.90;;;;;;12493329;28;20056;-83
2023/04/18 16:13:57;;;;;;;8.00;5.22;;;13.30;99.90;;;;;;12509004;28;20045;-83
2023/04/18 16:19:59;;;;;;;7.40;5.63;;;12.90;99.90;;;;;;12504987;28;20048;-83
2023/04/18 16:26:00;;;;;;;8.13;5.47;;;12.80;99.90;;;;;;12510815;28;20040;-83
2023/04/18 16:32:02;;;;;;;8.88;5.93;;;12.80;99.90;;;;;;12495740;28;20049;-82
2023/04/18 16:38:04;;;;;;;9.15;6.28;;;12.70;99.90;;;;;;12515616;28;20049;-83
2023/04/18 16:44:06;;;;;;;8.45;5.32;;;12.50;99.90;;;;;;12503724;28;20049;-83
2023/04/18 16:50:08;;;;;;;7.30;5.40;;;12.50;99.90;;;;;;12476700;28;20156;-83
2023/04/18 16:56:10;;;;;;;7.80;5.57;;;12.60;99.90;;;;;;12493605;28;20053;-83
2023/04/18 17:02:12;;;;;;;7.75;5.60;;;12.80;99.90;;;;;;12487525;28;20124;-83
2023/04/18 17:08:15;;;;;;;8.77;5.70;;;12.50;99.90;;;;;;12491400;28;20041;-83
2023/04/18 17:14:17;;;;;;;7.82;6.22;;;12.30;99.90;;;;;;12480360;28;20148;-83
2023/04/18 17:20:20;;;;;;;8.93;6.60;;;12.00;99.90;;;;;;12484558;28;20090;-83
2023/04/18 17:26:23;;;;;;;10.85;6.20;;;11.70;99.90;;;;;;12473992;28;20405;-83
2023/04/18 17:32:24;;;;;;;9.10;6.35;;;12.00;99.90;;;;;;12457431;28;20302;-82
2023/04/18 17:38:26;;;;;;;10.00;6.80;;;12.00;99.90;;;;;;12482414;28;20144;-83
2023/04/18 17:44:28;;;;;;;7.38;6.25;;;11.80;99.90;;;;;;12502420;28;20160;-83
2023/04/18 17:50:30;;;;;;;9.15;6.50;;;11.60;99.90;;;;;;12494716;28;20525;-83
2023/04/18 17:56:32;;;;;;;9.75;6.55;;;11.30;99.90;;;;;;12502120;28;20061;-82
2023/04/18 18:02:34;;;;;;;8.20;5.80;;;11.20;99.90;;;;;;12508448;28;20040;-83
2023/04/18 18:08:36;;;;;;;9.13;6.35;;;11.10;99.90;;;;;;12529189;28;20056;-83
2023/04/18 18:14:41;;;;;;;9.70;6.97;;;11.00;99.90;;;;;;12515392;28;20048;-83
2023/04/18 18:20:43;;;;;;;9.65;6.60;;;10.80;99.90;;;;;;12508291;28;20046;-82
2023/04/18 18:26:45;;;;;;;9.80;6.28;;;10.60;99.90;;;;;;12525165;28;20121;-83
2023/04/18 18:32:47;;;;;;;9.15;6.30;;;10.60;99.90;;;;;;12517469;28;20053;-82
2023/04/18 18:38:49;;;;;;;13.20;7.30;;;10.60;99.90;;;;;;12525508;28;20091;-82
2023/04/18 18:44:50;;;;;;;11.00;6.53;;;10.60;99.90;;;;;;12502224;28;20664;-83
2023/04/18 18:50:53;;;;;;;12.05;7.10;;;10.60;99.90;;;;;;12558270;28;20056;-83
2023/04/18 18:56:54;;;;;;;13.50;7.63;;;10.50;99.90;;;;;;12531241;28;20061;-83
2023/04/18 19:02:56;;;;;;;11.95;7.78;;;10.60;99.90;;;;;;12536090;28;20083;-82
2023/04/18 19:08:58;;;;;;;13.85;8.05;;;10.60;99.90;;;;;;12543613;28;20092;-82
2023/04/18 19:15:00;;;;;;;12.25;7.70;;;10.60;99.90;;;;;;12576586;28;20052;-81
2023/04/18 19:21:03;;;;;;;11.23;7.53;;;10.70;99.90;;;;;;12580618;28;20167;-81
2023/04/18 19:27:04;;;;;;;16.85;7.82;;;10.80;99.90;;;;;;12548696;28;20033;-82
2023/04/18 19:33:06;;;;;;;14.98;8.77;;;10.70;99.90;;;;;;12556123;28;20065;-81
2023/04/18 19:39:08;;;;;;;10.77;7.88;;;10.80;99.90;;;;;;12560269;28;20053;-81
2023/04/18 19:45:10;;;;;;;16.60;8.77;;;10.80;99.90;;;;;;12569559;28;20103;-82
2023/04/18 19:51:12;;;;;;;13.77;8.10;;;10.80;99.90;;;;;;12559553;28;20051;-81
2023/04/18 19:57:14;;;;;;;14.80;8.02;;;10.80;99.90;;;;;;12530593;28;20085;-81
2023/04/18 20:03:16;;;;;;;12.65;8.35;;;10.80;99.90;;;;;;12528893;28;20069;-81
2023/04/18 20:09:18;;;;;;;12.02;8.30;;;10.70;99.90;;;;;;12539910;28;20055;-81
2023/04/18 20:15:21;;;;;;;14.80;8.32;;;10.70;99.90;;;;;;12517287;28;20056;-81
2023/04/18 20:21:23;;;;;;;13.93;8.40;;;10.80;99.90;;;;;;12514040;28;20049;-82
2023/04/18 20:27:25;;;;;;;11.73;7.45;;;10.70;99.90;;;;;;12510245;28;20072;-81
2023/04/18 20:33:27;;;;;;;12.98;7.90;;;10.70;99.90;;;;;;12514467;28;20076;-81
2023/04/18 20:39:29;;;;;;;11.88;7.70;;;10.70;99.90;;;;;;12494568;28;20060;-81
2023/04/18 20:45:33;;;;;;;13.18;8.25;;;10.60;99.90;;;;;;12503420;28;20106;-82
2023/04/18 20:51:35;;;;;;;13.35;7.68;;;10.60;99.90;;;;;;12498593;28;21371;-81
2023/04/18 20:57:37;;;;;;;11.60;7.57;;;10.70;99.90;;;;;;12494479;28;20115;-81
2023/04/18 21:03:39;;;;;;;10.02;7.00;;;10.60;99.90;;;;;;12494554;28;20520;-81
2023/04/18 21:09:41;;;;;;;11.70;7.40;;;10.50;99.90;;;;;;12524211;28;20138;-81
2023/04/18 21:15:43;;;;;;;10.93;7.05;;;10.40;99.90;;;;;;12495005;28;20045;-81
2023/04/18 21:21:45;;;;;;;12.55;7.07;;;10.40;99.90;;;;;;12485479;28;20124;-81
2023/04/18 21:27:49;;;;;;;11.23;7.20;;;10.30;99.90;;;;;;12493829;28;20053;-81
2023/04/18 21:33:52;;;;;;;12.05;7.40;;;10.30;99.90;;;;;;12500013;28;20055;-81
2023/04/18 21:39:54;;;;;;;11.90;6.72;;;10.20;99.90;;;;;;12497020;28;20052;-81
2023/04/18 21:45:56;;;;;;;9.60;5.78;;;10.20;99.90;;;;;;12512493;28;20490;-81
2023/04/18 21:51:58;;;;;;;11.15;6.25;;;10.20;99.90;;;;;;12520434;28;20045;-81
2023/04/18 21:57:59;;;;;;;8.10;5.55;;;10.10;99.90;;;;;;12541224;28;20053;-81
2023/04/18 22:04:01;;;;;;;8.50;5.50;;;10.00;99.90;;;;;;12529385;28;20733;-81
2023/04/18 22:10:04;;;;;;;10.15;5.32;;;10.10;99.90;;;;;;12518411;28;20505;-81
2023/04/18 22:16:08;;;;;;;7.68;4.85;;;9.90;99.90;;;;;;12530554;28;20053;-81
2023/04/18 22:22:10;;;;;;;10.07;5.00;;;9.80;99.90;;;;;;12524211;28;20045;-81
2023/04/18 22:28:12;;;;;;;7.57;4.82;;;9.70;99.90;;;;;;12531414;28;20060;-81
2023/04/18 22:34:13;;;;;;;8.05;4.78;;;9.40;99.90;;;;;;12528991;28;20051;-81
2023/04/18 22:40:16;;;;;;;7.28;4.65;;;9.30;99.90;;;;;;12501369;28;20106;-81
2023/04/18 22:46:17;;;;;;;7.53;4.35;;;9.40;99.90;;;;;;12514972;28;20084;-81
2023/04/18 22:52:22;;;;;;;8.02;4.05;;;9.20;99.90;;;;;;12514623;28;20136;-81
2023/04/18 22:58:24;;;;;;;5.85;3.53;;;9.00;99.90;;;;;;12465046;28;20156;-81
2023/04/18 23:04:28;;;;;;;6.88;3.92;;;8.90;99.90;;;;;;12501975;28;20053;-81
2023/04/18 23:10:30;;;;;;;;;;;9.00;99.90;;;;;;12489367;28;20057;-81
2023/04/18 23:16:32;;;;;;;6.72;3.85;;;9.00;99.90;;;;;;12501575;28;20546;-81
2023/04/18 23:22:35;;;;;;;5.60;3.75;;;8.90;99.90;;;;;;12482665;28;20041;-81
2023/04/18 23:28:37;;;;;;;9.27;4.22;;;8.80;99.90;;;;;;12496004;28;20502;-81
2023/04/18 23:34:39;;;;;;;7.22;3.78;;;8.70;99.90;;;;;;12472498;28;20053;-81
2023/04/18 23:40:41;;;;;;;6.60;4.05;;;8.60;99.90;;;;;;12502255;28;20057;-81
2023/04/18 23:46:43;;;;;;;7.03;4.28;;;8.40;99.90;;;;;;12505005;28;20060;-81
2023/04/18 23:52:45;;;;;;;8.18;4.30;;;8.30;99.90;;;;;;12523843;28;20052;-81
2023/04/18 23:58:47;;;;;;;7.40;4.13;;;8.20;99.90;;;;;;12504909;28;20497;-81
